createdAt,value
2022-12-03T00:01:36.658Z,101824.72
2022-12-03T00:04:04.819Z,101823.84
2022-12-03T00:06:34.662Z,101822.06
2022-12-03T00:09:03.426Z,101827.41
2022-12-03T00:11:34.674Z,101812.63
2022-12-03T00:14:02.699Z,101827.34
2022-12-03T00:16:31.031Z,101823.22
2022-12-03T00:19:00.310Z,101814.31
2022-12-03T00:21:28.235Z,101823.09
2022-12-03T00:23:56.117Z,101824.06
2022-12-03T00:26:24.078Z,101803.78
2022-12-03T00:28:52.480Z,101810.88
2022-12-03T00:31:23.258Z,101818.66
2022-12-03T00:33:51.316Z,101816.22
2022-12-03T00:36:20.675Z,101812.75
2022-12-03T00:38:48.704Z,101812.69
2022-12-03T00:41:16.655Z,101815.38
2022-12-03T00:43:44.604Z,101813.56
2022-12-03T00:46:15.776Z,101817.91
2022-12-03T00:48:47.712Z,101807.41
2022-12-03T00:51:15.424Z,101807.44
2022-12-03T00:53:44.843Z,101813.63
2022-12-03T00:56:12.786Z,101805.69
2022-12-03T00:58:40.576Z,101813.41
2022-12-03T01:01:08.531Z,101810.88
2022-12-03T01:03:36.886Z,101805.63
2022-12-03T01:06:04.934Z,101813.38
2022-12-03T01:08:32.896Z,101816.00
2022-12-03T01:11:02.136Z,101816.03
2022-12-03T01:13:30.119Z,101816.00
2022-12-03T01:15:58.089Z,101798.34
2022-12-03T01:18:26.084Z,101819.59
2022-12-03T01:20:54.006Z,101822.91
2022-12-03T01:23:21.898Z,101827.34
2022-12-03T01:25:49.626Z,101817.84
2022-12-03T01:28:18.930Z,101820.44
2022-12-03T01:31:00.811Z,101818.50
2022-12-03T01:33:28.782Z,101821.16
2022-12-03T01:35:56.690Z,101824.47
2022-12-03T01:38:24.657Z,101824.34
2022-12-03T01:40:54.736Z,101819.88
2022-12-03T01:43:24.095Z,101824.34
2022-12-03T01:45:52.134Z,101829.53
2022-12-03T01:48:20.385Z,101823.28
2022-12-03T01:50:48.426Z,101827.66
2022-12-03T01:53:18.926Z,101824.97
2022-12-03T01:55:48.957Z,101828.50
2022-12-03T01:58:18.454Z,101822.38
2022-12-03T02:00:47.718Z,101826.84
2022-12-03T02:03:19.503Z,101781.78
2022-12-03T02:05:47.545Z,101823.13
2022-12-03T02:08:32.281Z,101819.66
2022-12-03T02:11:04.217Z,101824.81
2022-12-03T02:13:48.140Z,101818.69
2022-12-03T02:16:17.684Z,101822.09
2022-12-03T02:18:45.898Z,101819.44
2022-12-03T02:21:18.872Z,101827.38
2022-12-03T02:23:56.761Z,101825.72
2022-12-03T02:26:26.175Z,101823.97
2022-12-03T02:28:55.772Z,101823.97
2022-12-03T02:31:24.708Z,101818.69
2022-12-03T02:33:53.489Z,101824.75
2022-12-03T02:36:22.263Z,101828.38
2022-12-03T02:38:51.752Z,101828.19
2022-12-03T02:41:39.611Z,101824.72
2022-12-03T02:44:09.699Z,101823.69
2022-12-03T02:46:37.769Z,101820.22
2022-12-03T02:49:07.332Z,101819.13
2022-12-03T02:51:36.429Z,101805.25
2022-12-03T02:54:05.090Z,101820.09
2022-12-03T02:56:34.128Z,101820.13
2022-12-03T02:59:06.162Z,101823.78
2022-12-03T03:01:35.903Z,101819.50
2022-12-03T03:04:04.921Z,101829.84
2022-12-03T03:06:32.907Z,101821.22
2022-12-03T03:09:01.149Z,101824.75
2022-12-03T03:11:29.303Z,101820.34
2022-12-03T03:13:57.321Z,101821.22
2022-12-03T03:16:25.415Z,101814.91
2022-12-03T03:18:54.929Z,101818.56
2022-12-03T03:21:22.922Z,101814.03
2022-12-03T03:23:50.866Z,101822.81
2022-12-03T03:26:18.977Z,101827.13
2022-12-03T03:28:50.467Z,101819.34
2022-12-03T03:31:22.248Z,101809.88
2022-12-03T03:33:51.717Z,101812.63
2022-12-03T03:36:21.707Z,101811.66
2022-12-03T03:38:50.168Z,101805.63
2022-12-03T03:41:18.685Z,101809.88
2022-12-03T03:43:48.561Z,101814.25
2022-12-03T03:46:17.785Z,101801.03
2022-12-03T03:48:46.395Z,101803.81
2022-12-03T03:51:14.957Z,101795.97
2022-12-03T03:53:47.921Z,101794.00
2022-12-03T03:56:17.131Z,101803.75
2022-12-03T03:58:45.193Z,101796.81
2022-12-03T04:01:14.400Z,101807.13
2022-12-03T04:03:42.567Z,101794.97
2022-12-03T04:06:11.335Z,101799.31
2022-12-03T04:08:39.300Z,101789.38
2022-12-03T04:11:25.911Z,101763.84
2022-12-03T04:13:53.837Z,101799.13
2022-12-03T04:16:21.630Z,101804.41
2022-12-03T04:18:49.662Z,101799.97
2022-12-03T04:21:36.972Z,101787.56
2022-12-03T04:24:06.022Z,101799.25
2022-12-03T04:26:53.361Z,101794.94
2022-12-03T04:29:22.066Z,101798.44
2022-12-03T04:32:10.496Z,101799.31
2022-12-03T04:34:55.879Z,101793.03
2022-12-03T04:37:24.214Z,101794.84
2022-12-03T04:39:54.277Z,101794.81
2022-12-03T04:42:23.876Z,101803.41
2022-12-03T04:44:52.299Z,101802.53
2022-12-03T04:47:22.587Z,101804.09
2022-12-03T04:49:52.436Z,101796.41
2022-12-03T04:52:22.159Z,101793.00
2022-12-03T04:54:50.323Z,101784.28
2022-12-03T04:57:18.267Z,101787.53
2022-12-03T04:59:47.597Z,101790.31
2022-12-03T05:02:15.589Z,101786.84
2022-12-03T05:04:43.626Z,101791.34
2022-12-03T05:07:11.704Z,101796.41
2022-12-03T05:09:39.650Z,101788.66
2022-12-03T05:12:07.666Z,101786.00
2022-12-03T05:14:36.636Z,101765.75
2022-12-03T05:17:06.108Z,101792.88
2022-12-03T05:19:57.006Z,101781.38
2022-12-03T05:22:24.998Z,101776.19
2022-12-03T05:24:53.280Z,101783.94
2022-12-03T05:27:24.157Z,101792.69
2022-12-03T05:29:52.862Z,101785.75
2022-12-03T05:32:23.361Z,101785.72
2022-12-03T05:34:51.536Z,101785.72
2022-12-03T05:37:20.119Z,101789.19
2022-12-03T05:39:48.028Z,101777.75
2022-12-03T05:42:33.018Z,101788.34
2022-12-03T05:45:00.928Z,101770.84
2022-12-03T05:47:29.986Z,101780.50
2022-12-03T05:49:57.912Z,101768.06
2022-12-03T05:52:25.948Z,101785.47
2022-12-03T05:54:54.100Z,101773.34
2022-12-03T05:57:22.360Z,101765.28
2022-12-03T05:59:51.106Z,101779.16
2022-12-03T06:02:19.299Z,101788.66
2022-12-03T06:04:48.709Z,101782.56
2022-12-03T06:07:16.663Z,101789.81
2022-12-03T06:09:44.652Z,101788.88
2022-12-03T06:12:12.615Z,101733.25
2022-12-03T06:14:40.981Z,101783.66
2022-12-03T06:17:08.980Z,101784.63
2022-12-03T06:19:36.980Z,101789.09
2022-12-03T06:22:06.234Z,101785.59
2022-12-03T06:24:34.297Z,101778.47
2022-12-03T06:27:02.227Z,101781.13
2022-12-03T06:29:30.120Z,101784.72
2022-12-03T06:31:57.911Z,101782.06
2022-12-03T06:34:25.793Z,101780.38
2022-12-03T06:36:53.529Z,101782.84
2022-12-03T06:39:23.810Z,101783.69
2022-12-03T06:41:51.810Z,101791.63
2022-12-03T06:44:19.835Z,101784.28
2022-12-03T06:46:47.836Z,101782.59
2022-12-03T06:49:15.949Z,101783.69
2022-12-03T06:51:43.875Z,101788.88
2022-12-03T06:54:12.213Z,101768.72
2022-12-03T06:56:45.072Z,101786.25
2022-12-03T06:59:13.411Z,101780.16
2022-12-03T07:01:41.538Z,101786.25
2022-12-03T07:04:09.855Z,101783.44
2022-12-03T07:06:37.938Z,101786.06
2022-12-03T07:09:05.868Z,101779.16
2022-12-03T07:11:39.902Z,101777.38
2022-12-03T07:14:11.108Z,101771.41
2022-12-03T07:16:40.049Z,101773.97
2022-12-03T07:19:08.390Z,101770.38
2022-12-03T07:21:36.463Z,101765.13
2022-12-03T07:24:04.786Z,101771.44
2022-12-03T07:26:33.117Z,101766.94
2022-12-03T07:29:01.094Z,101762.50
2022-12-03T07:31:30.483Z,101773.13
2022-12-03T07:33:58.470Z,101768.66
2022-12-03T07:36:26.473Z,101768.75
2022-12-03T07:38:54.162Z,101767.03
2022-12-03T07:41:22.123Z,101767.91
2022-12-03T07:43:49.878Z,101764.31
2022-12-03T07:46:17.894Z,101743.25
2022-12-03T07:48:47.310Z,101764.44
2022-12-03T07:51:15.745Z,101754.13
2022-12-03T07:53:43.827Z,101756.63
2022-12-03T07:56:11.555Z,101750.44
2022-12-03T07:58:39.476Z,101751.41
2022-12-03T08:01:07.550Z,101747.44
2022-12-03T08:03:35.620Z,101755.53
2022-12-03T08:06:05.051Z,101759.94
2022-12-03T08:08:32.996Z,101756.56
2022-12-03T08:11:01.719Z,101756.44
2022-12-03T08:13:29.938Z,101760.84
2022-12-03T08:16:00.786Z,101760.13
2022-12-03T08:18:29.314Z,101746.00
2022-12-03T08:20:57.198Z,101755.66
2022-12-03T08:23:26.502Z,101751.34
2022-12-03T08:25:54.387Z,101745.13
2022-12-03T08:28:23.727Z,101748.66
2022-12-03T08:31:09.456Z,101753.09
2022-12-03T08:33:37.876Z,101747.94
2022-12-03T08:36:13.492Z,101749.84
2022-12-03T08:38:45.233Z,101746.25
2022-12-03T08:41:15.588Z,101740.94
2022-12-03T08:43:44.055Z,101747.94
2022-12-03T08:46:16.907Z,101756.50
2022-12-03T08:48:49.080Z,101757.47
2022-12-03T08:51:22.224Z,101751.28
2022-12-03T08:53:58.159Z,101742.59
2022-12-03T08:56:34.027Z,101741.84
2022-12-03T08:59:15.304Z,101750.59
2022-12-03T09:01:45.413Z,101746.31
2022-12-03T09:04:22.444Z,101741.91
2022-12-03T09:06:50.516Z,101738.06
2022-12-03T09:09:20.016Z,101745.88
2022-12-03T09:11:48.439Z,101746.59
2022-12-03T09:14:18.976Z,101747.72
2022-12-03T09:16:47.784Z,101744.31
2022-12-03T09:19:16.401Z,101741.00
2022-12-03T09:21:45.594Z,101742.72
2022-12-03T09:24:13.527Z,101726.94
2022-12-03T09:26:42.609Z,101739.25
2022-12-03T09:29:12.604Z,101741.91
2022-12-03T09:31:41.527Z,101740.28
2022-12-03T09:34:09.950Z,101742.94
2022-12-03T09:36:37.925Z,101742.09
2022-12-03T09:39:05.938Z,101745.41
2022-12-03T09:41:33.862Z,101743.03
2022-12-03T09:44:05.146Z,101738.66
2022-12-03T09:46:35.749Z,101734.44
2022-12-03T09:49:04.954Z,101732.63
2022-12-03T09:51:37.147Z,101733.66
2022-12-03T09:54:07.857Z,101737.19
2022-12-03T09:56:38.909Z,101736.28
2022-12-03T09:59:14.499Z,101731.84
2022-12-03T10:01:43.126Z,101732.63
2022-12-03T10:04:11.688Z,101708.94
2022-12-03T10:06:45.562Z,101720.44
2022-12-03T10:09:17.212Z,101726.66
2022-12-03T10:11:45.696Z,101724.88
2022-12-03T10:14:16.535Z,101726.53
2022-12-03T10:16:44.898Z,101718.63
2022-12-03T10:19:20.155Z,101705.69
2022-12-03T10:21:48.209Z,101712.59
2022-12-03T10:24:22.135Z,101714.34
2022-12-03T10:26:51.874Z,101710.81
2022-12-03T10:29:31.590Z,101704.84
2022-12-03T10:32:03.681Z,101705.84
2022-12-03T10:34:33.858Z,101703.13
2022-12-03T10:37:14.260Z,101695.53
2022-12-03T10:39:58.819Z,101691.06
2022-12-03T10:42:28.805Z,101695.56
2022-12-03T10:45:19.225Z,101690.38
2022-12-03T10:48:06.378Z,101679.22
2022-12-03T10:50:35.599Z,101686.31
2022-12-03T10:53:04.929Z,101680.06
2022-12-03T10:55:38.673Z,101674.81
2022-12-03T10:58:06.888Z,101674.00
2022-12-03T11:00:40.339Z,101675.63
2022-12-03T11:03:19.329Z,101668.91
2022-12-03T11:05:51.201Z,101673.25
2022-12-03T11:08:21.670Z,101670.59
2022-12-03T11:10:59.768Z,101674.09
2022-12-03T11:13:49.175Z,101666.31
2022-12-03T11:19:46.839Z,101666.06
2022-12-03T11:22:27.992Z,101658.38
2022-12-03T11:25:33.429Z,101659.31
2022-12-03T11:28:43.541Z,101656.69
2022-12-03T11:31:37.101Z,101651.53
2022-12-03T11:34:40.452Z,101649.78
2022-12-03T11:37:26.694Z,101649.97
2022-12-03T11:40:39.160Z,101651.53
2022-12-03T11:43:10.975Z,101646.34
2022-12-03T11:45:39.830Z,101649.94
2022-12-03T11:48:14.996Z,101636.97
2022-12-03T11:50:44.965Z,101634.38
2022-12-03T11:53:17.843Z,101635.19
2022-12-03T11:55:48.759Z,101630.91
2022-12-03T11:58:19.297Z,101627.53
2022-12-03T12:00:52.162Z,101627.53
2022-12-03T12:03:31.281Z,101617.91
2022-12-03T12:06:03.121Z,101621.34
2022-12-03T12:08:31.714Z,101626.69
2022-12-03T12:10:59.918Z,101627.63
2022-12-03T12:13:52.564Z,101617.28
2022-12-03T12:16:41.274Z,101607.53
2022-12-03T12:19:33.214Z,101619.19
2022-12-03T12:22:18.270Z,101612.19
2022-12-03T12:24:51.540Z,101621.94
2022-12-03T12:27:22.159Z,101618.41
2022-12-03T12:29:55.325Z,101609.69
2022-12-03T12:32:27.303Z,101610.44
2022-12-03T12:35:01.181Z,101608.63
2022-12-03T12:37:34.643Z,101608.41
2022-12-03T12:40:07.403Z,101583.91
2022-12-03T12:42:37.008Z,101594.59
2022-12-03T12:45:15.424Z,101596.06
2022-12-03T12:47:49.221Z,101583.13
2022-12-03T12:50:19.855Z,101571.63
2022-12-03T12:52:51.516Z,101584.00
2022-12-03T12:55:20.190Z,101588.31
2022-12-03T12:57:48.294Z,101578.78
2022-12-03T13:00:18.773Z,101579.56
2022-12-03T13:02:50.924Z,101571.00
2022-12-03T13:05:20.414Z,101579.69
2022-12-03T13:07:48.890Z,101576.22
2022-12-03T13:10:34.029Z,101578.09
2022-12-03T13:13:24.187Z,101573.72
2022-12-03T13:15:58.313Z,101569.38
2022-12-03T13:18:30.354Z,101569.03
2022-12-03T13:21:00.398Z,101571.72
2022-12-03T13:23:31.384Z,101566.78
2022-12-03T13:26:18.580Z,101549.94
2022-12-03T13:28:50.660Z,101558.84
2022-12-03T13:31:29.700Z,101565.03
2022-12-03T13:33:58.922Z,101560.69
2022-12-03T13:36:37.957Z,101560.66
2022-12-03T13:39:16.155Z,101555.31
2022-12-03T13:42:02.488Z,101555.28
2022-12-03T13:44:31.807Z,101561.34
2022-12-03T13:47:12.346Z,101561.19
2022-12-03T13:49:40.439Z,101554.97
2022-12-03T13:52:16.665Z,101560.09
2022-12-03T13:54:45.601Z,101555.69
2022-12-03T13:57:13.511Z,101557.53
2022-12-03T13:59:41.406Z,101565.44
2022-12-03T14:02:11.321Z,101564.56
2022-12-03T14:04:39.600Z,101561.72
2022-12-03T14:07:07.621Z,101560.00
2022-12-03T14:09:36.789Z,101551.28
2022-12-03T14:12:22.604Z,101507.25
2022-12-03T14:14:50.633Z,101502.91
2022-12-03T14:17:19.000Z,101545.38
2022-12-03T14:19:47.075Z,101533.88
2022-12-03T14:22:15.011Z,101541.78
2022-12-03T14:24:44.261Z,101543.56
2022-12-03T14:27:12.215Z,101538.38
2022-12-03T14:29:39.919Z,101531.47
2022-12-03T14:32:07.936Z,101529.63
2022-12-03T14:34:35.944Z,101526.16
2022-12-03T14:37:03.854Z,101521.78
2022-12-03T14:39:31.613Z,101525.94
2022-12-03T14:42:16.702Z,101531.06
2022-12-03T14:44:46.335Z,101524.00
2022-12-03T14:47:16.027Z,101541.66
2022-12-03T14:49:44.157Z,101539.03
2022-12-03T14:52:12.822Z,101534.75
2022-12-03T14:54:42.306Z,101540.69
2022-12-03T14:57:13.437Z,101534.41
2022-12-03T14:59:41.491Z,101537.13
2022-12-03T15:02:11.032Z,101541.56
2022-12-03T15:04:39.480Z,101541.50
2022-12-03T15:07:07.778Z,101541.50
2022-12-03T15:09:36.035Z,101532.00
2022-12-03T15:12:04.721Z,101517.91
2022-12-03T15:14:33.987Z,101538.75
2022-12-03T15:17:02.065Z,101530.97
2022-12-03T15:19:30.076Z,101537.97
2022-12-03T15:21:58.266Z,101538.03
2022-12-03T15:24:26.154Z,101538.03
2022-12-03T15:26:53.923Z,101533.88
2022-12-03T15:29:22.380Z,101534.72
2022-12-03T15:31:51.843Z,101533.72
2022-12-03T15:34:22.768Z,101531.09
2022-12-03T15:36:51.183Z,101538.13
2022-12-03T15:39:18.874Z,101535.50
2022-12-03T15:41:46.942Z,101529.31
2022-12-03T15:44:14.848Z,101536.38
2022-12-03T15:46:42.617Z,101538.28
2022-12-03T15:49:12.029Z,101543.47
2022-12-03T15:51:40.025Z,101541.66
2022-12-03T15:54:07.973Z,101532.97
2022-12-03T15:56:37.570Z,101536.44
2022-12-03T15:59:05.738Z,101536.16
2022-12-03T16:01:33.894Z,101540.72
2022-12-03T16:04:01.936Z,101525.75
2022-12-03T16:06:31.300Z,101530.19
2022-12-03T16:08:59.195Z,101537.03
2022-12-03T16:11:27.157Z,101533.47
2022-12-03T16:13:54.901Z,101533.53
2022-12-03T16:16:23.004Z,101533.53
2022-12-03T16:18:51.217Z,101528.28
2022-12-03T16:21:24.967Z,101521.19
2022-12-03T16:23:56.505Z,101537.78
2022-12-03T16:26:24.503Z,101522.13
2022-12-03T16:28:52.433Z,101522.94
2022-12-03T16:31:20.521Z,101526.50
2022-12-03T16:33:48.933Z,101521.13
2022-12-03T16:36:17.114Z,101522.88
2022-12-03T16:38:45.046Z,101521.91
2022-12-03T16:41:14.475Z,101528.78
2022-12-03T16:43:45.446Z,101528.03
2022-12-03T16:46:26.099Z,101532.34
2022-12-03T16:48:56.312Z,101519.44
2022-12-03T16:51:27.116Z,101520.03
2022-12-03T16:53:55.275Z,101517.69
2022-12-03T16:56:24.517Z,101516.88
2022-12-03T16:58:52.433Z,101522.97
2022-12-03T17:01:23.443Z,101522.03
2022-12-03T17:03:51.532Z,101521.03
2022-12-03T17:06:19.403Z,101522.00
2022-12-03T17:08:49.642Z,101518.53
2022-12-03T17:11:18.794Z,101514.28
2022-12-03T17:13:48.052Z,101520.50
2022-12-03T17:16:16.129Z,101519.53
2022-12-03T17:18:44.135Z,101518.63
2022-12-03T17:21:11.882Z,101518.47
2022-12-03T17:23:39.851Z,101516.66
2022-12-03T17:26:07.808Z,101515.00
2022-12-03T17:28:35.934Z,101518.44
2022-12-03T17:31:05.456Z,101513.31
2022-12-03T17:33:33.513Z,101518.34
2022-12-03T17:36:01.411Z,101519.34
2022-12-03T17:38:32.798Z,101517.59
2022-12-03T17:41:05.392Z,101516.81
2022-12-03T17:43:33.305Z,101516.78
2022-12-03T17:46:01.363Z,101522.88
2022-12-03T17:48:31.350Z,101514.09
2022-12-03T17:50:59.398Z,101504.47
2022-12-03T17:53:27.321Z,101504.63
2022-12-03T17:55:55.554Z,101511.72
2022-12-03T17:58:23.522Z,101512.63
2022-12-03T18:00:51.552Z,101503.97
2022-12-03T18:03:19.564Z,101510.03
2022-12-03T18:05:48.894Z,101512.50
2022-12-03T18:08:17.007Z,101508.13
2022-12-03T18:10:45.008Z,101504.66
2022-12-03T18:13:12.983Z,101504.63
2022-12-03T18:15:41.050Z,101506.38
2022-12-03T18:18:09.221Z,101502.84
2022-12-03T18:20:37.541Z,101505.59
2022-12-03T18:23:06.923Z,101500.38
2022-12-03T18:25:37.476Z,101510.69
2022-12-03T18:28:06.568Z,101496.75
2022-12-03T18:30:34.802Z,101497.66
2022-12-03T18:33:02.740Z,101492.53
2022-12-03T18:35:31.201Z,101488.97
2022-12-03T18:37:59.336Z,101486.44
2022-12-03T18:40:28.665Z,101490.91
2022-12-03T18:42:57.081Z,101496.06
2022-12-03T18:45:25.361Z,101499.50
2022-12-03T18:47:53.226Z,101498.53
2022-12-03T18:50:21.260Z,101498.63
2022-12-03T18:52:49.218Z,101498.59
2022-12-03T18:55:19.694Z,101489.91
2022-12-03T18:57:48.992Z,101488.94
2022-12-03T19:00:17.573Z,101492.19
2022-12-03T19:03:02.507Z,101493.94
2022-12-03T19:05:31.885Z,101488.94
2022-12-03T19:08:00.215Z,101488.94
2022-12-03T19:10:28.508Z,101474.88
2022-12-03T19:12:58.312Z,101485.38
2022-12-03T19:15:26.342Z,101488.03
2022-12-03T19:17:54.369Z,101482.06
2022-12-03T19:20:22.090Z,101487.19
2022-12-03T19:22:50.090Z,101475.06
2022-12-03T19:25:17.883Z,101476.81
2022-12-03T19:27:45.933Z,101479.25
2022-12-03T19:30:15.603Z,101479.22
2022-12-03T19:32:45.176Z,101480.13
2022-12-03T19:35:13.101Z,101474.72
2022-12-03T19:37:40.898Z,101482.66
2022-12-03T19:40:11.201Z,101485.25
2022-12-03T19:42:39.618Z,101485.38
2022-12-03T19:45:08.623Z,101488.69
2022-12-03T19:47:38.075Z,101487.03
2022-12-03T19:50:07.268Z,101457.25
2022-12-03T19:52:37.036Z,101479.25
2022-12-03T19:55:06.065Z,101483.66
2022-12-03T19:57:34.162Z,101483.63
2022-12-03T20:00:02.124Z,101487.19
2022-12-03T20:02:41.728Z,101481.16
2022-12-03T20:05:09.857Z,101478.53
2022-12-03T20:07:37.837Z,101482.75
2022-12-03T20:10:07.470Z,101485.47
2022-12-03T20:12:35.695Z,101488.03
2022-12-03T20:15:03.754Z,101480.16
2022-12-03T20:17:32.004Z,101480.28
2022-12-03T20:20:01.302Z,101481.03
2022-12-03T20:22:31.364Z,101489.59
2022-12-03T20:24:59.364Z,101479.34
2022-12-03T20:27:27.385Z,101474.09
2022-12-03T20:29:55.496Z,101482.09
2022-12-03T20:32:23.797Z,101482.00
2022-12-03T20:34:51.754Z,101482.91
2022-12-03T20:37:20.885Z,101481.16
2022-12-03T20:39:50.746Z,101480.22
2022-12-03T20:42:18.825Z,101482.88
2022-12-03T20:44:46.928Z,101478.53
2022-12-03T20:47:15.993Z,101489.03
2022-12-03T20:49:43.952Z,101484.75
2022-12-03T20:52:12.279Z,101482.88
2022-12-03T20:54:41.552Z,101476.75
2022-12-03T20:57:09.613Z,101478.50
2022-12-03T20:59:37.660Z,101480.31
2022-12-03T21:02:05.828Z,101473.31
2022-12-03T21:04:34.019Z,101475.09
2022-12-03T21:07:02.196Z,101457.53
2022-12-03T21:09:30.151Z,101464.56
2022-12-03T21:11:59.563Z,101472.50
2022-12-03T21:14:27.526Z,101465.44
2022-12-03T21:17:11.641Z,101462.84
2022-12-03T21:19:39.780Z,101468.06
2022-12-03T21:22:08.324Z,101466.19
2022-12-03T21:24:36.451Z,101472.31
2022-12-03T21:27:05.827Z,101465.34
2022-12-03T21:29:33.761Z,101460.16
2022-12-03T21:32:01.829Z,101468.97
2022-12-03T21:34:35.839Z,101466.28
2022-12-03T21:37:05.200Z,101466.13
2022-12-03T21:39:33.402Z,101465.38
2022-12-03T21:42:33.967Z,101470.66
2022-12-03T21:44:50.985Z,101461.06
2022-12-03T21:47:19.033Z,101464.38
2022-12-03T21:49:47.062Z,101464.28
2022-12-03T21:52:15.052Z,101459.75
2022-12-03T21:54:43.151Z,101462.53
2022-12-03T21:57:11.124Z,101469.50
2022-12-03T21:59:39.085Z,101473.19
2022-12-03T22:02:08.550Z,101474.91
2022-12-03T22:04:36.687Z,101469.59
2022-12-03T22:07:05.639Z,101470.44
2022-12-03T22:09:34.288Z,101469.56
2022-12-03T22:12:02.724Z,101471.34
2022-12-03T22:14:31.050Z,101475.69
2022-12-03T22:16:59.012Z,101468.63
2022-12-03T22:19:28.558Z,101475.69
2022-12-03T22:21:56.498Z,101465.19
2022-12-03T22:24:24.474Z,101468.63
2022-12-03T22:26:54.655Z,101462.63
2022-12-03T22:29:22.886Z,101463.59
2022-12-03T22:31:51.179Z,101465.22
2022-12-03T22:34:19.103Z,101415.31
2022-12-03T22:36:48.395Z,101458.47
2022-12-03T22:39:16.349Z,101465.44
2022-12-03T22:41:44.362Z,101455.75
2022-12-03T22:44:12.220Z,101453.22
2022-12-03T22:46:40.038Z,101457.44
2022-12-03T22:49:08.307Z,101452.16
2022-12-03T22:51:36.447Z,101443.50
2022-12-03T22:54:06.294Z,101440.09
2022-12-03T22:56:34.275Z,101441.81
2022-12-03T22:59:02.851Z,101442.63
2022-12-03T23:01:32.491Z,101446.09
2022-12-03T23:04:00.951Z,101436.41
2022-12-03T23:06:29.897Z,101437.44
2022-12-03T23:08:59.641Z,101440.91
2022-12-03T23:11:30.626Z,101446.25
2022-12-03T23:13:59.617Z,101445.34
2022-12-03T23:16:30.622Z,101443.63
2022-12-03T23:18:59.801Z,101443.47
2022-12-03T23:21:30.648Z,101439.19
2022-12-03T23:23:59.238Z,101431.31
2022-12-03T23:26:29.428Z,101430.53
2022-12-03T23:28:57.753Z,101419.13
2022-12-03T23:31:27.565Z,101421.75
2022-12-03T23:33:56.132Z,101429.50
2022-12-03T23:36:26.478Z,101427.94
2022-12-03T23:38:55.148Z,101427.03
2022-12-03T23:41:24.421Z,101424.34
2022-12-03T23:43:54.155Z,101413.13
2022-12-03T23:46:24.792Z,101394.69
2022-12-03T23:48:53.840Z,101419.28
2022-12-03T23:51:24.199Z,101407.91
2022-12-03T23:53:52.808Z,101417.47
2022-12-03T23:56:25.208Z,101419.19
2022-12-03T23:58:54.615Z,101422.66
